Rizokarpason, Cyprus
Current Conditions -  °F | °C
As of 1:20 PM on Saturday 01 Nov 2014 (Local Time) from LCEN Reporting Station
Scattered Clouds Scattered Clouds  
Wind Chill: 63°   Ceiling: Unl
Heat Index: 63°   Visibility: 6mi
Dew Point: 55°   Wind: 13mph
Humidity: 77%   Direction: 280°W
Pressure: 29.91"   Gusts: NA
Location:  35.58°N, 34.4°E
Report Text: LCEN 011020Z 28011KT 9999 FEW025CB SCT030 17/13 Q1013 NOSIG
Loading
Personal Weather Stations






























Interactive Weather Map New forecast layout! Learn more

10-Day Weather Forecast

Advertisements
Track Severe Weather on mobile